createdAt,value
2023-05-16T00:00:07.029Z,10.40
2023-05-16T00:02:34.103Z,10.30
2023-05-16T00:05:02.526Z,10.30
2023-05-16T00:07:29.537Z,10.30
2023-05-16T00:09:56.894Z,10.50
2023-05-16T00:12:24.189Z,10.40
2023-05-16T00:14:52.322Z,10.20
2023-05-16T00:20:11.142Z,10.20
2023-05-16T00:22:38.859Z,10.20
2023-05-16T00:25:06.393Z,10.40
2023-05-16T00:27:35.810Z,10.30
2023-05-16T00:30:04.025Z,10.30
2023-05-16T00:32:31.516Z,10.20
2023-05-16T00:34:59.693Z,10.10
2023-05-16T00:37:26.692Z,10.10
2023-05-16T00:39:54.316Z,10.10
2023-05-16T00:42:21.774Z,10.10
2023-05-16T00:44:48.982Z,10.20
2023-05-16T00:47:16.223Z,10.10
2023-05-16T00:49:43.342Z,9.90
2023-05-16T00:52:10.598Z,9.90
2023-05-16T00:54:38.373Z,10.00
2023-05-16T00:57:07.076Z,10.00
2023-05-16T00:59:34.385Z,10.10
2023-05-16T01:02:01.943Z,10.10
2023-05-16T01:04:29.644Z,10.50
2023-05-16T01:06:57.404Z,10.40
2023-05-16T01:09:24.582Z,10.30
2023-05-16T01:12:17.596Z,10.20
2023-05-16T01:15:01.110Z,10.00
2023-05-16T01:17:47.687Z,10.00
2023-05-16T01:20:45.626Z,9.90
2023-05-16T01:23:37.859Z,9.90
2023-05-16T01:26:28.249Z,9.90
2023-05-16T01:28:56.844Z,9.90
2023-05-16T01:31:24.484Z,9.80
2023-05-16T01:33:51.976Z,9.80
2023-05-16T01:36:34.128Z,9.70
2023-05-16T01:39:39.627Z,9.70
2023-05-16T01:42:12.333Z,9.80
2023-05-16T01:45:03.687Z,9.70
2023-05-16T01:47:33.495Z,9.60
2023-05-16T01:50:15.667Z,9.60
2023-05-16T01:52:48.704Z,9.50
2023-05-16T01:55:21.195Z,9.40
2023-05-16T01:57:50.885Z,9.70
2023-05-16T02:00:18.134Z,9.40
2023-05-16T02:02:45.007Z,9.40
2023-05-16T02:05:12.099Z,9.40
2023-05-16T02:07:39.825Z,9.50
2023-05-16T02:10:07.735Z,9.40
2023-05-16T02:12:35.516Z,9.40
2023-05-16T02:15:02.793Z,9.40
2023-05-16T02:17:29.772Z,9.20
2023-05-16T02:19:58.214Z,9.10
2023-05-16T02:22:25.273Z,8.90
2023-05-16T02:24:53.864Z,9.10
2023-05-16T02:27:21.298Z,9.10
2023-05-16T02:29:48.510Z,9.10
2023-05-16T02:32:15.427Z,9.00
2023-05-16T02:34:43.210Z,8.80
2023-05-16T02:37:13.095Z,8.90
2023-05-16T02:39:40.588Z,8.70
2023-05-16T02:42:09.727Z,8.50
2023-05-16T02:44:36.729Z,8.50
2023-05-16T02:47:03.900Z,8.60
2023-05-16T02:49:32.613Z,8.50
2023-05-16T02:52:00.827Z,8.50
2023-05-16T02:54:27.885Z,8.50
2023-05-16T02:56:54.980Z,8.30
2023-05-16T02:59:22.454Z,8.20
2023-05-16T03:01:49.561Z,8.20
2023-05-16T03:04:16.638Z,8.30
2023-05-16T03:06:44.722Z,8.20
2023-05-16T03:09:11.821Z,8.20
2023-05-16T03:11:38.747Z,8.20
2023-05-16T03:14:06.266Z,8.20
2023-05-16T03:16:33.366Z,8.20
2023-05-16T03:19:00.487Z,8.40
2023-05-16T03:21:28.862Z,8.20
2023-05-16T03:23:55.864Z,8.30
2023-05-16T03:26:23.118Z,8.20
2023-05-16T03:28:52.166Z,8.30
2023-05-16T03:31:19.572Z,8.40
2023-05-16T03:33:46.545Z,8.10
2023-05-16T03:36:13.646Z,8.10
2023-05-16T03:38:40.703Z,7.90
2023-05-16T03:41:07.765Z,8.10
2023-05-16T03:43:34.975Z,8.00
2023-05-16T03:46:04.453Z,8.10
2023-05-16T03:48:32.704Z,8.10
2023-05-16T03:50:59.720Z,8.00
2023-05-16T03:53:29.163Z,7.90
2023-05-16T03:55:56.282Z,7.90
2023-05-16T03:58:23.619Z,8.00
2023-05-16T04:00:50.849Z,8.20
2023-05-16T04:03:17.886Z,8.20
2023-05-16T04:05:45.216Z,8.00
2023-05-16T04:08:12.199Z,8.20
2023-05-16T04:10:39.364Z,8.10
2023-05-16T04:13:06.258Z,8.20
2023-05-16T04:15:33.784Z,8.40
2023-05-16T04:18:00.828Z,8.30
2023-05-16T04:20:27.806Z,8.30
2023-05-16T04:22:54.804Z,8.50
2023-05-16T04:25:22.047Z,8.20
2023-05-16T04:27:49.061Z,8.40
2023-05-16T04:30:16.263Z,8.20
2023-05-16T04:32:45.220Z,8.20
2023-05-16T04:35:12.205Z,8.20
2023-05-16T04:37:40.076Z,8.20
2023-05-16T04:40:14.077Z,8.20
2023-05-16T04:42:41.118Z,8.20
2023-05-16T04:45:11.079Z,8.10
2023-05-16T04:47:38.981Z,8.00
2023-05-16T04:50:06.848Z,8.30
2023-05-16T04:52:33.864Z,8.10
2023-05-16T04:55:01.261Z,8.10
2023-05-16T04:57:29.463Z,8.00
2023-05-16T04:59:56.417Z,8.20
2023-05-16T05:02:23.423Z,8.20
2023-05-16T05:04:50.804Z,8.30
2023-05-16T05:07:17.884Z,8.20
2023-05-16T05:09:44.941Z,8.30
2023-05-16T05:12:11.977Z,8.40
2023-05-16T05:14:38.879Z,8.60
2023-05-16T05:17:07.469Z,8.50
2023-05-16T05:19:34.574Z,8.50
2023-05-16T05:22:03.509Z,8.50
2023-05-16T05:24:30.455Z,8.50
2023-05-16T05:26:58.162Z,8.40
2023-05-16T05:29:25.214Z,8.40
2023-05-16T05:31:52.333Z,8.40
2023-05-16T05:34:19.398Z,8.50
2023-05-16T05:36:46.425Z,8.50
2023-05-16T05:39:13.399Z,8.60
2023-05-16T05:41:43.751Z,8.60
2023-05-16T05:44:10.734Z,8.60
2023-05-16T05:46:38.799Z,8.70
2023-05-16T05:49:06.338Z,8.90
2023-05-16T05:51:33.443Z,8.90
2023-05-16T05:54:01.179Z,9.00
2023-05-16T05:56:28.441Z,9.10
2023-05-16T05:58:55.732Z,9.00
2023-05-16T06:01:25.278Z,9.20
2023-05-16T06:03:52.595Z,9.00
2023-05-16T06:06:21.634Z,9.10
2023-05-16T06:08:48.916Z,9.30
2023-05-16T06:11:16.972Z,9.30
2023-05-16T06:13:43.957Z,9.40
2023-05-16T06:16:11.104Z,9.50
2023-05-16T06:18:38.281Z,9.60
2023-05-16T06:21:06.024Z,9.70
2023-05-16T06:23:33.475Z,10.00
2023-05-16T06:26:00.463Z,9.90
2023-05-16T06:28:28.198Z,9.80
2023-05-16T06:30:55.785Z,9.80
2023-05-16T06:33:23.096Z,10.00
2023-05-16T06:35:52.664Z,9.90
2023-05-16T06:38:20.070Z,9.90
2023-05-16T06:40:47.190Z,10.10
2023-05-16T06:43:19.449Z,9.90
2023-05-16T06:45:47.129Z,10.10
2023-05-16T06:48:19.174Z,10.20
2023-05-16T06:50:51.302Z,10.10
2023-05-16T06:53:19.109Z,10.20
2023-05-16T06:55:47.058Z,10.30
2023-05-16T06:58:14.526Z,10.50
2023-05-16T07:00:42.093Z,10.60
2023-05-16T07:03:09.446Z,10.60
2023-05-16T07:05:36.567Z,10.80
2023-05-16T07:08:05.058Z,10.90
2023-05-16T07:10:33.403Z,11.00
2023-05-16T07:13:01.661Z,11.10
2023-05-16T07:15:28.965Z,11.40
2023-05-16T07:17:57.213Z,11.60
2023-05-16T07:20:25.367Z,11.70
2023-05-16T07:22:52.419Z,11.70
2023-05-16T07:25:19.386Z,11.60
2023-05-16T07:27:46.422Z,11.70
2023-05-16T07:30:14.498Z,11.70
2023-05-16T07:32:42.640Z,12.20
2023-05-16T07:35:13.597Z,12.40
2023-05-16T07:37:42.656Z,12.50
2023-05-16T07:40:12.798Z,12.40
2023-05-16T07:42:39.842Z,12.10
2023-05-16T07:45:08.500Z,12.10
2023-05-16T07:47:37.153Z,12.40
2023-05-16T07:50:04.627Z,12.50
2023-05-16T07:52:31.593Z,12.50
2023-05-16T07:54:58.837Z,12.50
2023-05-16T07:57:26.400Z,12.60
2023-05-16T07:59:53.661Z,12.70
2023-05-16T08:02:20.969Z,12.80
2023-05-16T08:04:50.597Z,12.90
2023-05-16T08:07:17.694Z,13.00
2023-05-16T08:09:44.854Z,12.80
2023-05-16T08:12:12.084Z,12.90
2023-05-16T08:14:39.697Z,12.90
2023-05-16T08:17:07.632Z,13.00
2023-05-16T08:19:47.191Z,13.10
2023-05-16T08:22:14.331Z,13.30
2023-05-16T08:24:41.743Z,12.90
2023-05-16T08:27:10.078Z,12.70
2023-05-16T08:29:39.025Z,12.80
2023-05-16T08:32:06.313Z,13.30
2023-05-16T08:34:33.978Z,13.90
2023-05-16T08:37:01.016Z,14.30
2023-05-16T08:39:27.986Z,14.50
2023-05-16T08:41:56.711Z,14.60
2023-05-16T08:44:23.762Z,14.50
2023-05-16T08:46:55.393Z,15.00
2023-05-16T08:49:23.206Z,15.20
2023-05-16T08:51:56.837Z,14.80
2023-05-16T08:54:26.210Z,14.30
2023-05-16T08:56:57.031Z,13.90
2023-05-16T08:59:24.341Z,13.90
2023-05-16T09:01:51.535Z,14.20
2023-05-16T09:04:20.850Z,14.10
2023-05-16T09:06:48.581Z,13.90
2023-05-16T09:09:18.007Z,13.80
2023-05-16T09:11:45.447Z,13.60
2023-05-16T09:14:14.361Z,13.70
2023-05-16T09:16:41.494Z,13.60
2023-05-16T09:19:12.779Z,13.60
2023-05-16T09:21:40.398Z,13.50
2023-05-16T09:24:08.965Z,13.60
2023-05-16T09:26:38.572Z,14.00
2023-05-16T09:29:13.030Z,14.40
2023-05-16T09:31:43.651Z,14.30
2023-05-16T09:34:14.134Z,14.70
2023-05-16T09:36:43.782Z,14.70
2023-05-16T09:39:15.560Z,14.90
2023-05-16T09:41:42.574Z,15.00
2023-05-16T09:44:09.640Z,15.10
2023-05-16T09:46:38.934Z,15.30
2023-05-16T09:49:06.555Z,15.40
2023-05-16T09:51:34.844Z,15.40
2023-05-16T09:54:01.936Z,15.40
2023-05-16T09:56:30.249Z,15.20
2023-05-16T09:58:57.240Z,15.20
2023-05-16T10:01:25.407Z,15.10
2023-05-16T10:03:52.687Z,15.30
2023-05-16T10:06:20.521Z,15.50
2023-05-16T10:08:48.921Z,14.90
2023-05-16T10:11:21.014Z,14.80
2023-05-16T10:13:53.305Z,15.00
2023-05-16T10:16:24.253Z,15.20
2023-05-16T10:18:52.403Z,15.30
2023-05-16T10:21:22.195Z,15.80
2023-05-16T10:23:52.059Z,15.90
2023-05-16T10:26:22.779Z,15.70
2023-05-16T10:28:51.254Z,15.90
2023-05-16T10:31:19.173Z,16.50
2023-05-16T10:33:46.984Z,16.60
2023-05-16T10:36:15.762Z,16.80
2023-05-16T10:38:44.083Z,16.90
2023-05-16T10:41:12.026Z,17.30
2023-05-16T10:43:39.289Z,17.90
2023-05-16T10:46:11.579Z,18.20
2023-05-16T10:48:40.376Z,17.80
2023-05-16T10:51:23.208Z,17.60
2023-05-16T10:53:54.823Z,17.60
2023-05-16T10:56:26.605Z,17.50
2023-05-16T10:58:54.811Z,17.20
2023-05-16T11:01:32.640Z,17.40
2023-05-16T11:04:02.747Z,16.50
2023-05-16T11:06:43.167Z,16.10
2023-05-16T11:09:17.833Z,16.20
2023-05-16T11:11:53.808Z,16.20
2023-05-16T11:14:45.447Z,16.20
2023-05-16T11:17:22.345Z,16.50
2023-05-16T11:19:59.874Z,17.00
2023-05-16T11:22:29.618Z,17.10
2023-05-16T11:24:57.293Z,17.30
2023-05-16T11:27:27.037Z,17.40
2023-05-16T11:29:56.726Z,17.10
2023-05-16T11:32:24.359Z,17.00
2023-05-16T11:34:52.661Z,17.30
2023-05-16T11:37:22.378Z,17.80
2023-05-16T11:39:49.644Z,17.50
2023-05-16T11:42:18.194Z,17.40
2023-05-16T11:44:45.874Z,17.10
2023-05-16T11:47:13.058Z,16.30
2023-05-16T11:49:41.636Z,16.00
2023-05-16T11:52:09.823Z,16.30
2023-05-16T11:54:37.433Z,16.80
2023-05-16T11:57:04.761Z,17.10
2023-05-16T11:59:32.126Z,17.30
2023-05-16T12:02:03.282Z,17.20
2023-05-16T12:04:30.467Z,17.30
2023-05-16T12:07:02.322Z,17.60
2023-05-16T12:09:29.376Z,17.90
2023-05-16T12:11:56.533Z,17.90
2023-05-16T12:14:24.452Z,17.90
2023-05-16T12:16:52.782Z,18.00
2023-05-16T12:19:20.827Z,18.00
2023-05-16T12:21:48.315Z,18.30
2023-05-16T12:24:15.402Z,17.50
2023-05-16T12:26:43.493Z,17.70
2023-05-16T12:29:14.014Z,17.70
2023-05-16T12:31:41.651Z,17.90
2023-05-16T12:34:20.611Z,18.60
2023-05-16T12:36:52.994Z,18.80
2023-05-16T12:39:20.512Z,18.60
2023-05-16T12:41:47.584Z,18.50
2023-05-16T12:44:19.910Z,18.30
2023-05-16T12:46:52.592Z,18.10
2023-05-16T12:49:23.050Z,18.10
2023-05-16T12:51:54.836Z,18.30
2023-05-16T12:54:29.456Z,18.40
2023-05-16T12:56:56.556Z,18.60
2023-05-16T12:59:23.520Z,18.90
2023-05-16T13:01:52.367Z,19.20
2023-05-16T13:04:20.607Z,19.40
2023-05-16T13:09:19.531Z,19.10
2023-05-16T13:11:46.984Z,18.80
2023-05-16T13:14:14.139Z,19.10
2023-05-16T13:16:42.252Z,19.00
2023-05-16T13:19:09.659Z,19.20
2023-05-16T13:21:36.884Z,19.20
2023-05-16T13:24:04.263Z,19.40
2023-05-16T13:26:31.373Z,19.40
2023-05-16T13:28:58.363Z,19.70
2023-05-16T13:31:25.531Z,19.20
2023-05-16T13:33:52.826Z,18.90
2023-05-16T13:36:20.074Z,18.40
2023-05-16T13:38:47.398Z,19.20
2023-05-16T13:41:14.362Z,19.80
2023-05-16T13:43:41.413Z,19.90
2023-05-16T13:46:08.848Z,19.10
2023-05-16T13:48:35.955Z,19.20
2023-05-16T13:51:03.011Z,18.70
2023-05-16T13:53:30.054Z,18.70
2023-05-16T13:55:57.087Z,19.00
2023-05-16T13:58:24.556Z,19.90
2023-05-16T14:00:51.895Z,20.80
2023-05-16T14:03:19.463Z,20.50
2023-05-16T14:05:46.779Z,20.40
2023-05-16T14:08:14.537Z,19.90
2023-05-16T14:10:41.654Z,19.50
2023-05-16T14:13:08.645Z,18.90
2023-05-16T14:15:37.302Z,18.00
2023-05-16T14:18:05.275Z,17.80
2023-05-16T14:20:33.399Z,17.80
2023-05-16T14:23:00.550Z,18.00
2023-05-16T14:25:27.732Z,18.30
2023-05-16T14:27:55.011Z,18.40
2023-05-16T14:30:22.235Z,18.30
2023-05-16T14:32:52.324Z,18.10
2023-05-16T14:35:20.173Z,17.80
2023-05-16T14:37:47.227Z,17.90
2023-05-16T14:40:16.642Z,18.30
2023-05-16T14:42:46.128Z,18.90
2023-05-16T14:45:13.795Z,19.90
2023-05-16T14:47:40.993Z,21.50
2023-05-16T14:50:10.781Z,22.80
2023-05-16T14:52:40.235Z,23.10
2023-05-16T14:55:08.633Z,22.50
2023-05-16T14:57:36.539Z,21.90
2023-05-16T15:00:06.026Z,21.40
2023-05-16T15:02:33.253Z,20.20
2023-05-16T15:05:00.482Z,20.00
2023-05-16T15:07:27.654Z,19.10
2023-05-16T15:09:54.821Z,18.40
2023-05-16T15:12:21.999Z,18.10
2023-05-16T15:14:49.063Z,18.20
2023-05-16T15:17:16.627Z,19.40
2023-05-16T15:19:43.860Z,22.10
2023-05-16T15:22:11.043Z,23.40
2023-05-16T15:24:38.124Z,24.80
2023-05-16T15:27:05.576Z,23.60
2023-05-16T15:29:32.571Z,22.60
2023-05-16T15:31:59.839Z,21.60
2023-05-16T15:34:28.663Z,21.20
2023-05-16T15:36:55.803Z,19.60
2023-05-16T15:39:25.870Z,19.30
2023-05-16T15:42:09.739Z,18.60
2023-05-16T15:44:38.787Z,18.40
2023-05-16T15:47:08.964Z,18.10
2023-05-16T15:49:36.009Z,17.90
2023-05-16T15:52:05.131Z,17.90
2023-05-16T15:54:32.220Z,17.60
2023-05-16T15:56:59.443Z,17.10
2023-05-16T15:59:26.507Z,16.90
2023-05-16T16:01:53.753Z,17.00
2023-05-16T16:04:23.764Z,16.90
2023-05-16T16:06:50.928Z,16.70
2023-05-16T16:09:18.006Z,17.00
2023-05-16T16:11:46.323Z,17.10
2023-05-16T16:14:13.873Z,17.10
2023-05-16T16:16:41.185Z,17.30
2023-05-16T16:19:08.771Z,17.50
2023-05-16T16:21:36.053Z,17.90
2023-05-16T16:24:03.290Z,18.70
2023-05-16T16:26:31.864Z,18.80
2023-05-16T16:28:59.904Z,19.20
2023-05-16T16:31:28.112Z,19.90
2023-05-16T16:33:55.178Z,19.10
2023-05-16T16:36:22.208Z,19.30
2023-05-16T16:38:49.268Z,19.40
2023-05-16T16:41:16.671Z,19.00
2023-05-16T16:43:43.700Z,18.90
2023-05-16T16:46:11.032Z,18.50
2023-05-16T16:48:40.175Z,18.60
2023-05-16T16:51:07.364Z,18.50
2023-05-16T16:53:37.441Z,19.00
2023-05-16T16:56:04.849Z,20.90
2023-05-16T16:58:32.126Z,20.50
2023-05-16T17:00:59.481Z,20.40
2023-05-16T17:03:26.849Z,19.60
2023-05-16T17:05:54.287Z,18.70
2023-05-16T17:08:21.752Z,18.10
2023-05-16T17:10:49.075Z,17.90
2023-05-16T17:13:19.359Z,17.90
2023-05-16T17:15:47.310Z,18.00
2023-05-16T17:18:14.761Z,17.70
2023-05-16T17:20:44.748Z,17.70
2023-05-16T17:23:11.888Z,17.30
2023-05-16T17:25:38.842Z,17.30
2023-05-16T17:28:05.893Z,17.20
2023-05-16T17:30:33.065Z,17.00
2023-05-16T17:33:00.135Z,16.90
2023-05-16T17:35:28.007Z,16.50
2023-05-16T17:37:55.688Z,16.50
2023-05-16T17:40:23.261Z,16.50
2023-05-16T17:42:51.600Z,16.30
2023-05-16T17:45:18.577Z,16.40
2023-05-16T17:47:45.681Z,16.30
2023-05-16T17:50:12.869Z,16.20
2023-05-16T17:52:40.747Z,16.10
2023-05-16T17:55:09.522Z,16.10
2023-05-16T17:57:36.846Z,16.00
2023-05-16T18:00:06.475Z,16.00
2023-05-16T18:02:34.222Z,15.80
2023-05-16T18:05:02.998Z,15.80
2023-05-16T18:07:30.128Z,15.80
2023-05-16T18:09:57.249Z,15.70
2023-05-16T18:12:24.814Z,15.70
2023-05-16T18:14:51.963Z,15.60
2023-05-16T18:17:20.126Z,16.00
2023-05-16T18:19:48.753Z,17.30
2023-05-16T18:22:17.301Z,18.50
2023-05-16T18:24:44.929Z,19.80
2023-05-16T18:27:12.195Z,20.10
2023-05-16T18:29:41.252Z,19.60
2023-05-16T18:32:09.400Z,18.90
2023-05-16T18:34:36.430Z,18.10
2023-05-16T18:37:04.005Z,17.70
2023-05-16T18:39:32.206Z,17.40
2023-05-16T18:41:59.377Z,17.30
2023-05-16T18:44:26.767Z,16.70
2023-05-16T18:46:54.113Z,16.10
2023-05-16T18:49:21.045Z,15.90
2023-05-16T18:51:48.075Z,15.70
2023-05-16T18:54:15.448Z,15.80
2023-05-16T18:56:43.106Z,15.80
2023-05-16T18:59:11.416Z,15.50
2023-05-16T19:01:38.782Z,15.20
2023-05-16T19:04:07.440Z,14.80
2023-05-16T19:06:34.638Z,14.50
2023-05-16T19:09:01.815Z,14.50
2023-05-16T19:11:28.876Z,14.50
2023-05-16T19:13:55.927Z,14.60
2023-05-16T19:16:23.024Z,14.40
2023-05-16T19:18:50.550Z,14.30
2023-05-16T19:21:17.880Z,14.40
2023-05-16T19:23:46.138Z,14.30
2023-05-16T19:26:13.495Z,14.20
2023-05-16T19:28:43.514Z,14.20
2023-05-16T19:31:11.169Z,14.20
2023-05-16T19:33:38.460Z,14.20
2023-05-16T19:36:06.382Z,14.20
2023-05-16T19:38:36.565Z,14.10
2023-05-16T19:41:07.296Z,13.90
2023-05-16T19:43:34.937Z,13.80
2023-05-16T19:46:02.279Z,13.70
2023-05-16T19:48:29.768Z,13.70
2023-05-16T19:50:56.853Z,13.70
2023-05-16T19:53:23.865Z,13.60
2023-05-16T19:55:51.326Z,13.70
2023-05-16T19:58:18.643Z,13.80
2023-05-16T20:00:48.550Z,13.90
2023-05-16T20:03:15.658Z,14.00
2023-05-16T20:05:44.267Z,14.00
2023-05-16T20:08:12.169Z,14.00
2023-05-16T20:10:39.896Z,14.10
2023-05-16T20:13:07.030Z,14.00
2023-05-16T20:15:36.975Z,13.70
2023-05-16T20:18:08.048Z,13.60
2023-05-16T20:20:35.210Z,13.70
2023-05-16T20:23:02.468Z,13.50
2023-05-16T20:25:33.200Z,13.50
2023-05-16T20:28:00.513Z,13.40
2023-05-16T20:30:30.951Z,13.40
2023-05-16T20:32:59.825Z,13.40
2023-05-16T20:35:27.080Z,13.50
2023-05-16T20:37:55.623Z,13.40
2023-05-16T20:40:24.521Z,13.30
2023-05-16T20:42:53.553Z,13.30
2023-05-16T20:45:21.141Z,13.10
2023-05-16T20:47:48.392Z,12.90
2023-05-16T20:50:16.783Z,12.90
2023-05-16T20:52:43.809Z,12.80
2023-05-16T20:55:10.837Z,12.80
2023-05-16T20:57:37.856Z,12.70
2023-05-16T21:00:05.605Z,12.50
2023-05-16T21:02:32.751Z,12.30
2023-05-16T21:05:15.024Z,12.10
2023-05-16T21:07:49.938Z,12.00
2023-05-16T21:10:17.226Z,11.80
2023-05-16T21:12:44.564Z,11.70
2023-05-16T21:15:11.698Z,11.70
2023-05-16T21:17:41.551Z,11.60
2023-05-16T21:20:12.122Z,11.50
2023-05-16T21:22:39.285Z,11.40
2023-05-16T21:25:07.567Z,11.40
2023-05-16T21:27:35.093Z,11.30
2023-05-16T21:30:05.946Z,11.30
2023-05-16T21:32:34.626Z,11.30
2023-05-16T21:35:04.300Z,11.40
2023-05-16T21:37:32.870Z,11.30
2023-05-16T21:39:59.988Z,11.40
2023-05-16T21:42:28.347Z,11.30
2023-05-16T21:44:55.529Z,11.40
2023-05-16T21:47:27.188Z,11.10
2023-05-16T21:49:55.493Z,10.90
2023-05-16T21:52:35.146Z,11.10
2023-05-16T21:55:04.735Z,10.90
2023-05-16T21:57:31.999Z,10.90
2023-05-16T21:59:59.118Z,10.90
2023-05-16T22:02:26.164Z,10.90
2023-05-16T22:04:53.545Z,10.80
2023-05-16T22:07:20.617Z,10.80
2023-05-16T22:09:53.645Z,10.80
2023-05-16T22:12:22.442Z,10.70
2023-05-16T22:14:49.831Z,10.60
2023-05-16T22:17:19.975Z,10.60
2023-05-16T22:19:47.719Z,10.60
2023-05-16T22:22:15.270Z,10.60
2023-05-16T22:24:42.601Z,10.70
2023-05-16T22:27:09.751Z,10.50
2023-05-16T22:29:38.580Z,10.50
2023-05-16T22:32:08.264Z,10.60
2023-05-16T22:34:41.767Z,10.50
2023-05-16T22:37:11.906Z,10.60
2023-05-16T22:39:39.037Z,10.50
2023-05-16T22:42:06.770Z,10.40
2023-05-16T22:44:33.813Z,10.40
2023-05-16T22:47:00.918Z,10.30
2023-05-16T22:49:27.901Z,10.30
2023-05-16T22:51:54.899Z,10.40
2023-05-16T22:54:21.840Z,10.50
2023-05-16T22:56:48.827Z,10.40
2023-05-16T22:59:15.810Z,10.40
2023-05-16T23:01:42.859Z,10.30
2023-05-16T23:04:09.995Z,10.40
2023-05-16T23:06:37.020Z,10.30
2023-05-16T23:09:04.939Z,10.20
2023-05-16T23:11:32.661Z,10.20
2023-05-16T23:13:59.919Z,10.10
2023-05-16T23:16:27.222Z,10.20
2023-05-16T23:18:54.319Z,10.20
2023-05-16T23:21:22.313Z,10.20
2023-05-16T23:23:49.489Z,10.10
2023-05-16T23:26:17.024Z,10.00
2023-05-16T23:28:44.332Z,10.00
2023-05-16T23:31:11.583Z,10.00
2023-05-16T23:33:38.817Z,10.00
2023-05-16T23:36:06.385Z,10.00
2023-05-16T23:38:33.521Z,9.90
2023-05-16T23:41:00.666Z,9.90
2023-05-16T23:43:28.658Z,9.90
2023-05-16T23:45:55.670Z,9.90
2023-05-16T23:48:22.781Z,9.90
2023-05-16T23:50:49.971Z,9.90
2023-05-16T23:53:17.207Z,9.80
2023-05-16T23:55:44.321Z,9.80
2023-05-16T23:58:11.433Z,9.80
